Keams Canyon, Arizona
Current Conditions -  °F | °C
As of 3:56 AM on Saturday 22 Nov 2014 (Local Time) from KINW Reporting Station
Clear Clear  
Wind Chill: 21°   Ceiling: Unl
Heat Index: 21°   Visibility: 10mi
Dew Point: 10°   Wind: 0mph
Humidity: 63%   Direction: NA
Pressure: 30.13"   Gusts: NA
Location:  35.84°N, 110.24°W
Report Text: KINW 221056Z AUTO 00000KT 10SM CLR M06/M12 A3013 RMK AO2 SLP200 T10611122
Loading
Personal Weather Stations






























Interactive Weather Map New forecast layout! Learn more

10-Day Weather Forecast

Advertisements
Track Severe Weather on mobile